createdAt,value
2022-12-18T00:00:57.602Z,25.00
2022-12-18T00:05:09.323Z,24.07
2022-12-18T00:09:21.315Z,24.63
2022-12-18T00:13:36.657Z,24.07
2022-12-18T00:17:48.457Z,22.87
2022-12-18T00:22:00.096Z,22.73
2022-12-18T00:26:18.088Z,22.53
2022-12-18T00:30:29.960Z,21.53
2022-12-18T00:34:41.586Z,22.27
2022-12-18T00:38:55.750Z,21.87
2022-12-18T00:43:07.352Z,22.67
2022-12-18T00:47:23.160Z,21.67
2022-12-18T00:51:34.887Z,21.47
2022-12-18T00:55:46.831Z,20.77
2022-12-18T00:59:58.659Z,21.20
2022-12-18T01:04:10.359Z,20.70
2022-12-18T01:08:22.766Z,20.07
2022-12-18T01:12:35.038Z,21.10
2022-12-18T01:16:46.716Z,20.07
2022-12-18T01:20:58.524Z,19.77
2022-12-18T01:25:10.296Z,21.00
2022-12-18T01:29:21.882Z,19.03
2022-12-18T01:33:33.472Z,18.67
2022-12-18T01:37:45.009Z,20.23
2022-12-18T01:42:02.635Z,18.93
2022-12-18T01:46:18.762Z,19.70
2022-12-18T01:50:40.929Z,17.93
2022-12-18T01:54:53.392Z,18.10
2022-12-18T01:59:10.202Z,17.47
2022-12-18T02:03:22.042Z,17.60
2022-12-18T02:08:24.399Z,17.60
2022-12-18T02:13:02.905Z,16.93
2022-12-18T02:17:24.260Z,17.40
2022-12-18T02:21:58.357Z,17.83
2022-12-18T02:26:35.652Z,16.23
2022-12-18T02:30:50.146Z,16.53
2022-12-18T02:35:05.495Z,17.37
2022-12-18T02:39:21.826Z,16.83
2022-12-18T02:43:48.635Z,16.57
2022-12-18T02:48:03.572Z,15.80
2022-12-18T02:52:26.943Z,16.57
2022-12-18T02:56:46.944Z,15.40
2022-12-18T03:01:12.578Z,15.00
2022-12-18T03:05:39.787Z,14.97
2022-12-18T03:09:55.085Z,15.37
2022-12-18T03:14:08.562Z,14.87
2022-12-18T03:18:26.365Z,14.33
2022-12-18T03:22:40.044Z,15.20
2022-12-18T03:26:55.279Z,14.73
2022-12-18T03:31:10.789Z,16.30
2022-12-18T03:35:27.354Z,13.70
2022-12-18T03:39:39.456Z,15.27
2022-12-18T03:44:14.888Z,14.33
2022-12-18T03:48:40.242Z,14.00
2022-12-18T03:53:03.870Z,14.33
2022-12-18T03:57:22.553Z,14.33
2022-12-18T04:01:41.443Z,13.83
2022-12-18T04:05:56.364Z,13.30
2022-12-18T04:10:10.643Z,13.60
2022-12-18T04:14:26.175Z,12.77
2022-12-18T04:18:41.006Z,12.00
2022-12-18T04:22:53.743Z,11.23
2022-12-18T04:27:06.251Z,12.17
2022-12-18T04:31:24.727Z,12.83
2022-12-18T04:35:36.486Z,12.53
2022-12-18T04:39:48.252Z,11.67
2022-12-18T04:44:06.840Z,13.20
2022-12-18T04:48:18.416Z,11.30
2022-12-18T04:52:32.859Z,11.50
2022-12-18T04:56:44.461Z,11.60
2022-12-18T05:00:56.045Z,11.20
2022-12-18T05:05:08.197Z,10.63
2022-12-18T05:09:19.774Z,11.23
2022-12-18T05:13:32.463Z,10.23
2022-12-18T05:17:43.965Z,10.63
2022-12-18T05:21:55.466Z,10.30
2022-12-18T05:26:08.810Z,10.27
2022-12-18T05:30:20.461Z,10.93
2022-12-18T05:34:32.093Z,10.30
2022-12-18T05:38:43.705Z,10.77
2022-12-18T05:42:55.262Z,10.93
2022-12-18T05:47:07.084Z,9.83
2022-12-18T05:51:21.490Z,9.70
2022-12-18T05:55:37.422Z,9.17
2022-12-18T05:59:49.010Z,10.70
2022-12-18T06:04:00.666Z,8.93
2022-12-18T06:08:13.953Z,10.63
2022-12-18T06:12:25.580Z,10.67
2022-12-18T06:16:37.339Z,10.73
2022-12-18T06:21:00.258Z,10.23
2022-12-18T06:25:11.847Z,10.43
2022-12-18T06:29:23.525Z,10.70
2022-12-18T06:33:35.762Z,11.17
2022-12-18T06:37:47.291Z,10.83
2022-12-18T06:41:59.000Z,9.77
2022-12-18T06:46:29.129Z,10.47
2022-12-18T06:50:43.469Z,10.40
2022-12-18T06:54:55.109Z,9.83
2022-12-18T06:59:06.694Z,10.33
2022-12-18T07:03:18.262Z,10.33
2022-12-18T07:07:29.790Z,10.67
2022-12-18T07:11:41.417Z,10.70
2022-12-18T07:15:52.948Z,10.57
2022-12-18T07:20:05.007Z,10.80
2022-12-18T07:24:16.602Z,11.07
2022-12-18T07:28:28.252Z,10.57
2022-12-18T07:32:39.756Z,9.07
2022-12-18T07:36:51.276Z,9.87
2022-12-18T07:41:03.964Z,9.57
2022-12-18T07:45:18.273Z,9.90
2022-12-18T07:49:29.802Z,9.80
2022-12-18T07:53:41.872Z,8.70
2022-12-18T07:57:59.207Z,9.60
2022-12-18T08:02:12.691Z,8.20
2022-12-18T08:06:24.841Z,8.87
2022-12-18T08:10:36.609Z,8.93
2022-12-18T08:14:48.090Z,9.30
2022-12-18T08:18:59.614Z,8.57
2022-12-18T08:23:11.102Z,9.40
2022-12-18T08:27:30.294Z,8.57
2022-12-18T08:31:42.140Z,7.77
2022-12-18T08:35:54.113Z,8.13
2022-12-18T08:40:06.391Z,7.93
2022-12-18T08:44:36.656Z,7.57
2022-12-18T08:48:48.927Z,7.63
2022-12-18T08:53:01.131Z,7.63
2022-12-18T08:57:12.671Z,7.00
2022-12-18T09:01:25.006Z,7.90
2022-12-18T09:05:37.191Z,7.30
2022-12-18T09:09:48.893Z,7.60
2022-12-18T09:14:01.938Z,7.00
2022-12-18T09:18:14.807Z,6.70
2022-12-18T09:22:26.373Z,7.10
2022-12-18T09:26:38.156Z,7.30
2022-12-18T09:30:51.108Z,6.77
2022-12-18T09:35:02.815Z,6.43
2022-12-18T09:39:14.760Z,5.83
2022-12-18T09:43:42.183Z,6.57
2022-12-18T09:47:56.509Z,6.33
2022-12-18T09:52:29.761Z,5.80
2022-12-18T09:56:43.937Z,6.10
2022-12-18T10:00:56.690Z,6.07
2022-12-18T10:05:13.361Z,6.50
2022-12-18T10:10:12.614Z,6.43
2022-12-18T10:14:48.498Z,6.30
2022-12-18T10:19:18.300Z,6.17
2022-12-18T10:24:00.133Z,6.53
2022-12-18T10:28:14.951Z,6.43
2022-12-18T10:32:29.605Z,6.83
2022-12-18T10:36:41.661Z,6.57
2022-12-18T10:40:53.185Z,6.13
2022-12-18T10:45:11.389Z,6.07
2022-12-18T10:49:32.220Z,6.87
2022-12-18T10:53:44.041Z,6.33
2022-12-18T10:58:22.232Z,6.17
2022-12-18T11:02:39.401Z,6.40
2022-12-18T11:07:01.594Z,6.53
2022-12-18T11:11:23.940Z,6.63
2022-12-18T11:15:35.742Z,6.60
2022-12-18T11:19:54.964Z,6.67
2022-12-18T11:24:20.305Z,6.27
2022-12-18T11:28:43.441Z,6.27
2022-12-18T11:32:59.617Z,7.00
2022-12-18T11:37:14.075Z,6.80
2022-12-18T11:42:10.584Z,7.33
2022-12-18T11:46:44.469Z,7.17
2022-12-18T11:50:58.212Z,8.67
2022-12-18T11:55:50.217Z,7.47
2022-12-18T12:00:18.972Z,6.60
2022-12-18T12:05:01.113Z,7.50
2022-12-18T12:09:39.140Z,7.43
2022-12-18T12:14:12.612Z,8.00
2022-12-18T12:18:53.099Z,6.23
2022-12-18T12:23:12.351Z,6.80
2022-12-18T12:27:43.958Z,7.63
2022-12-18T12:32:17.112Z,8.10
2022-12-18T12:36:58.062Z,7.47
2022-12-18T12:41:51.066Z,7.27
2022-12-18T12:46:11.842Z,7.90
2022-12-18T12:50:24.678Z,7.20
2022-12-18T12:54:37.627Z,6.63
2022-12-18T12:59:39.533Z,7.23
2022-12-18T13:04:00.879Z,6.80
2022-12-18T13:08:27.397Z,6.80
2022-12-18T13:12:58.333Z,7.60
2022-12-18T13:17:22.138Z,8.57
2022-12-18T13:21:35.007Z,6.60
2022-12-18T13:25:47.122Z,6.77
2022-12-18T13:29:59.456Z,7.33
2022-12-18T13:43:49.351Z,7.37
2022-12-18T13:48:01.096Z,6.57
2022-12-18T13:52:22.264Z,7.93
2022-12-18T13:56:35.617Z,7.10
2022-12-18T14:00:47.722Z,7.53
2022-12-18T14:05:00.212Z,6.80
2022-12-18T14:09:20.341Z,8.37
2022-12-18T14:13:38.357Z,8.70
2022-12-18T14:17:52.005Z,7.33
2022-12-18T14:22:04.198Z,8.03
2022-12-18T14:26:24.041Z,7.73
2022-12-18T14:30:44.435Z,8.00
2022-12-18T14:34:56.285Z,7.10
2022-12-18T14:39:18.405Z,7.17
2022-12-18T14:43:34.224Z,7.50
2022-12-18T14:47:46.002Z,7.53
2022-12-18T14:52:07.255Z,7.40
2022-12-18T14:56:26.779Z,8.20
2022-12-18T15:00:45.575Z,7.63
2022-12-18T15:05:11.298Z,8.68
2022-12-18T15:09:26.926Z,8.17
2022-12-18T15:13:39.023Z,8.63
2022-12-18T15:17:58.232Z,8.40
2022-12-18T15:22:21.409Z,8.50
2022-12-18T15:26:38.576Z,7.30
2022-12-18T15:31:22.335Z,8.83
2022-12-18T15:35:33.934Z,8.30
2022-12-18T15:39:45.591Z,8.60
2022-12-18T15:43:57.210Z,8.33
2022-12-18T15:48:29.135Z,8.63
2022-12-18T15:52:45.081Z,9.27
2022-12-18T15:57:15.225Z,11.37
2022-12-18T16:01:30.149Z,9.33
2022-12-18T16:05:41.972Z,9.53
2022-12-18T16:09:53.772Z,10.53
2022-12-18T16:14:22.441Z,10.63
2022-12-18T16:18:33.994Z,9.73
2022-12-18T16:22:47.071Z,9.77
2022-12-18T16:27:00.685Z,10.10
2022-12-18T16:31:12.340Z,10.47
2022-12-18T16:35:25.124Z,9.50
2022-12-18T16:39:38.074Z,10.07
2022-12-18T16:43:54.690Z,10.17
2022-12-18T16:48:06.776Z,10.27
2022-12-18T16:52:18.913Z,10.93
2022-12-18T16:56:32.259Z,9.90
2022-12-18T17:00:43.808Z,12.63
2022-12-18T17:04:57.253Z,11.93
2022-12-18T17:09:24.686Z,10.90
2022-12-18T17:13:36.513Z,12.20
2022-12-18T17:17:48.154Z,13.50
2022-12-18T17:22:00.082Z,18.13
2022-12-18T17:26:13.008Z,18.13
2022-12-18T17:30:24.593Z,18.70
2022-12-18T17:34:37.029Z,11.70
2022-12-18T17:38:53.717Z,14.67
2022-12-18T17:43:05.342Z,13.10
2022-12-18T17:47:17.044Z,15.80
2022-12-18T17:51:30.217Z,14.47
2022-12-18T17:55:41.859Z,12.27
2022-12-18T17:59:53.472Z,13.60
2022-12-18T18:04:05.624Z,12.97
2022-12-18T18:08:17.344Z,11.73
2022-12-18T18:12:47.564Z,13.03
2022-12-18T18:17:04.323Z,13.43
2022-12-18T18:21:16.731Z,12.23
2022-12-18T18:25:28.628Z,12.63
2022-12-18T18:29:40.421Z,13.20
2022-12-18T18:33:52.315Z,12.87
2022-12-18T18:38:04.480Z,11.60
2022-12-18T18:42:16.141Z,13.07
2022-12-18T18:46:27.785Z,14.13
2022-12-18T18:50:39.407Z,13.57
2022-12-18T18:55:11.599Z,12.50
2022-12-18T18:59:31.163Z,12.80
2022-12-18T19:03:44.514Z,12.33
2022-12-18T19:07:56.266Z,13.70
2022-12-18T19:12:26.708Z,13.63
2022-12-18T19:16:38.877Z,13.87
2022-12-18T19:20:59.901Z,13.23
2022-12-18T19:25:11.488Z,11.90
2022-12-18T19:29:23.288Z,12.30
2022-12-18T19:33:43.682Z,11.87
2022-12-18T19:38:10.858Z,12.87
2022-12-18T19:42:28.064Z,11.73
2022-12-18T19:46:46.092Z,14.53
2022-12-18T19:50:57.781Z,13.30
2022-12-18T19:55:09.700Z,12.20
2022-12-18T19:59:27.255Z,12.83
2022-12-18T20:03:40.415Z,13.03
2022-12-18T20:07:59.001Z,13.97
2022-12-18T20:12:26.229Z,12.93
2022-12-18T20:16:41.483Z,13.80
2022-12-18T20:20:53.613Z,13.70
2022-12-18T20:25:08.323Z,14.67
2022-12-18T20:29:19.909Z,13.57
2022-12-18T20:33:31.503Z,14.73
2022-12-18T20:37:49.863Z,13.23
2022-12-18T20:42:03.764Z,14.87
2022-12-18T20:46:16.966Z,14.17
2022-12-18T20:51:09.529Z,14.80
2022-12-18T20:55:49.099Z,21.20
2022-12-18T21:00:18.865Z,20.97
2022-12-18T21:04:40.694Z,17.17
2022-12-18T21:08:54.153Z,17.13
2022-12-18T21:13:15.266Z,15.17
2022-12-18T21:17:44.728Z,16.80
2022-12-18T21:22:08.693Z,15.77
2022-12-18T21:26:34.005Z,15.83
2022-12-18T21:30:50.281Z,14.63
2022-12-18T21:35:13.040Z,16.50
2022-12-18T21:39:30.025Z,16.40
2022-12-18T21:44:03.771Z,16.33
2022-12-18T21:48:30.417Z,16.43
2022-12-18T21:52:48.492Z,16.60
2022-12-18T21:57:25.569Z,15.47
2022-12-18T22:01:46.541Z,19.40
2022-12-18T22:06:09.805Z,16.40
2022-12-18T22:10:31.983Z,16.73
2022-12-18T22:15:03.480Z,16.20
2022-12-18T22:24:07.304Z,18.40
2022-12-18T22:28:53.731Z,18.27
2022-12-18T22:33:11.263Z,27.87
2022-12-18T22:37:35.172Z,20.63
2022-12-18T22:41:55.661Z,21.10
2022-12-18T22:46:25.216Z,19.67
2022-12-18T22:50:40.531Z,18.70
2022-12-18T22:54:55.648Z,19.63
2022-12-18T22:59:20.951Z,19.80
2022-12-18T23:03:45.085Z,19.30
2022-12-18T23:08:01.659Z,19.90
2022-12-18T23:12:28.914Z,19.23
2022-12-18T23:16:49.637Z,19.60
2022-12-18T23:21:15.230Z,19.17
2022-12-18T23:25:38.840Z,20.50
2022-12-18T23:29:54.998Z,18.90
2022-12-18T23:34:13.961Z,18.63
2022-12-18T23:38:39.481Z,19.57
2022-12-18T23:47:38.681Z,20.63
2022-12-18T23:51:55.300Z,20.77
2022-12-18T23:56:12.807Z,21.03
